El Golea, El Golea Airport (DAUE)

NameEl Golea Airport
CityEl Golea
CountryAlgeria
ICAODAUE
IATAELG
Altitude398 m
CoordinatesGoogle Map
Live Air TrafficLiveATC.net
METARDAUE 200000Z 10004KT CAVOK 32/04 Q1014
2019-08-20 00:00:00 Wind: East (100°) 2.06 m/s - Visibility: > 10000 m - Weather: CAVOK - Temperature: 32 °C - Dew point: 4 °C - Humidity: 17% - Pressure: 1014 hPa

Sorry, no flights used the airport in this database.